Akron Canton Regional Airport Akron US
ICAO: KCAK
IATA: CAK
Category: Medium
Scheduled Services: Yes

Elevation: 1228 ft
TransAlt. 18000 ft.

Airport Communications:
APP/DEP:32.3
APP/DEP:118.6
ATIS:121.05
CLNC DEL:132.05
GND:121.7
ARNG OPS:41.1
CLEVELAND RDO:114.4
TWR:118.3
UNICOM:122.95

KCAK Zoom In..

Runways:

(A) RW 01 length 7601 ft width 150 ft
ILS 109.50 / hdg 9

(B) RW 05 length 8204 ft width 150 ft
ILS 108.30 / hdg 54

(C) RW 19 length 7601 ft width 150 ft
ILS 109.50 / hdg 189

(D) RW 23 length 8204 ft width 150 ft
ILS 108.30 / hdg 234

Location; KCAK
Day. 21 / Time. 23.51 Zulu
* Altimeter: 30.06
* Temperature: 4/° c. 39.2°f.
* Wind from: 210° Speed 06 kn.
Dewpoint: 00° c.
Visibility: 1 m.
Clouds: Overcast 300 ft.
Conditions: Mist.

KCAK 212351Z 21006KT 1 1/2SM R23/4500VP6000FT BR OVC003 07/05 A3006 RMK AO2 TWR VIS 2 SLP186 4/000 T00670050 10078 20061 51007


Wind From 210°
Speed 06 kn.

jpsM music video
CHECK IT OUT

jpsM - It Moves..

 
jpsmedia.com for Web Design  worldairports.se 2018   terms of use